createdAt,value
2022-08-05T00:00:16.982Z,12.20
2022-08-05T00:03:06.685Z,12.70
2022-08-05T00:06:05.388Z,12.00
2022-08-05T00:11:02.648Z,12.43
2022-08-05T00:13:38.260Z,12.60
2022-08-05T00:16:12.298Z,12.07
2022-08-05T00:18:45.472Z,12.43
2022-08-05T00:23:46.141Z,12.18
2022-08-05T00:26:25.862Z,11.98
2022-08-05T00:28:53.819Z,12.32
2022-08-05T00:31:53.786Z,12.23
2022-08-05T00:34:54.966Z,12.43
2022-08-05T00:37:12.534Z,12.52
2022-08-05T00:39:57.321Z,12.32
2022-08-05T00:42:33.918Z,12.27
2022-08-05T00:45:03.342Z,12.25
2022-08-05T00:47:56.925Z,12.60
2022-08-05T00:50:28.861Z,11.82
2022-08-05T00:52:57.884Z,12.57
2022-08-05T00:55:42.393Z,12.68
2022-08-05T00:58:12.463Z,13.18
2022-08-05T01:00:42.275Z,12.52
2022-08-05T01:03:22.199Z,12.60
2022-08-05T01:08:42.369Z,12.77
2022-08-05T01:11:22.181Z,13.02
2022-08-05T01:14:08.954Z,13.95
2022-08-05T01:16:50.122Z,13.13
2022-08-05T01:19:56.470Z,13.40
2022-08-05T01:22:35.851Z,13.95
2022-08-05T01:25:40.563Z,13.70
2022-08-05T01:28:39.470Z,13.95
2022-08-05T01:31:13.229Z,13.10
2022-08-05T01:33:49.339Z,13.73
2022-08-05T01:36:28.190Z,13.27
2022-08-05T01:39:00.114Z,12.80
2022-08-05T01:41:33.990Z,13.35
2022-08-05T01:44:10.016Z,13.30
2022-08-05T01:46:41.968Z,12.98
2022-08-05T01:49:24.182Z,12.90
2022-08-05T01:51:58.224Z,12.80
2022-08-05T01:54:33.673Z,13.18
2022-08-05T01:58:11.969Z,12.57
2022-08-05T02:00:11.719Z,13.35
2022-08-05T02:02:46.570Z,14.10
2022-08-05T02:05:28.626Z,13.82
2022-08-05T02:08:00.343Z,13.13
2022-08-05T02:13:15.724Z,13.30
2022-08-05T02:15:46.929Z,13.00
2022-08-05T02:18:30.821Z,12.85
2022-08-05T02:21:14.809Z,13.85
2022-08-05T02:23:45.940Z,13.40
2022-08-05T02:26:20.393Z,13.13
2022-08-05T02:28:50.616Z,13.80
2022-08-05T02:31:24.118Z,12.77
2022-08-05T02:33:58.059Z,13.00
2022-08-05T02:36:31.510Z,13.23
2022-08-05T02:39:02.272Z,13.32
2022-08-05T02:41:36.392Z,14.40
2022-08-05T02:44:24.405Z,13.07
2022-08-05T02:47:00.355Z,13.25
2022-08-05T02:49:35.653Z,13.27
2022-08-05T02:52:11.598Z,13.20
2022-08-05T02:54:50.715Z,13.40
2022-08-05T02:58:10.667Z,12.85
2022-08-05T03:00:12.636Z,13.18
2022-08-05T03:02:42.911Z,12.63
2022-08-05T03:05:15.502Z,13.45
2022-08-05T03:08:04.510Z,13.18
2022-08-05T03:10:32.726Z,12.90
2022-08-05T03:15:28.440Z,13.95
2022-08-05T03:18:00.152Z,13.60
2022-08-05T03:20:30.137Z,13.38
2022-08-05T03:22:59.278Z,13.45
2022-08-05T03:25:33.054Z,13.52
2022-08-05T03:28:18.492Z,14.07
2022-08-05T03:30:48.813Z,14.07
2022-08-05T03:33:17.822Z,13.70
2022-08-05T03:35:49.916Z,13.85
2022-08-05T03:38:23.870Z,15.27
2022-08-05T03:41:08.184Z,14.93
2022-08-05T03:44:08.533Z,13.05
2022-08-05T03:46:26.844Z,14.25
2022-08-05T03:48:59.273Z,14.00
2022-08-05T03:52:39.423Z,13.65
2022-08-05T03:55:34.025Z,15.40
2022-08-05T03:57:35.146Z,13.57
2022-08-05T04:00:15.594Z,13.50
2022-08-05T04:05:33.651Z,13.60
2022-08-05T04:08:29.618Z,13.90
2022-08-05T04:10:58.633Z,13.18
2022-08-05T04:13:50.390Z,12.85
2022-08-05T04:16:24.940Z,14.15
2022-08-05T04:18:54.598Z,14.55
2022-08-05T04:22:10.079Z,14.30
2022-08-05T04:24:18.844Z,14.45
2022-08-05T04:26:50.506Z,13.77
2022-08-05T04:29:19.078Z,13.95
2022-08-05T04:34:19.236Z,14.10
2022-08-05T04:37:03.127Z,13.70
2022-08-05T04:42:01.880Z,13.90
2022-08-05T04:44:32.006Z,14.48
2022-08-05T04:47:08.891Z,15.27
2022-08-05T04:50:03.013Z,13.85
2022-08-05T04:52:28.073Z,15.25
2022-08-05T04:54:58.926Z,14.60
2022-08-05T04:57:47.569Z,13.55
2022-08-05T05:02:47.754Z,14.75
2022-08-05T05:05:28.476Z,13.95
2022-08-05T05:08:00.891Z,13.95
2022-08-05T05:13:04.393Z,14.13
2022-08-05T05:15:56.359Z,14.20
2022-08-05T05:18:28.459Z,13.57
2022-08-05T05:21:03.795Z,13.98
2022-08-05T05:23:39.068Z,13.32
2022-08-05T05:26:28.046Z,12.50
2022-08-05T05:28:57.122Z,12.68
2022-08-05T05:31:25.515Z,13.75
2022-08-05T05:34:02.489Z,12.63
2022-08-05T05:36:31.636Z,13.02
2022-08-05T05:39:00.690Z,12.32
2022-08-05T05:41:40.488Z,12.37
2022-08-05T05:44:35.662Z,11.80
2022-08-05T05:47:04.342Z,11.95
2022-08-05T05:49:35.950Z,11.98
2022-08-05T05:52:07.262Z,12.00
2022-08-05T05:54:50.167Z,11.30
2022-08-05T05:57:21.999Z,11.93
2022-08-05T05:59:52.444Z,12.70
2022-08-05T06:02:32.356Z,11.20
2022-08-05T06:07:57.511Z,11.80
2022-08-05T06:10:29.587Z,11.93
2022-08-05T06:13:05.886Z,10.88
2022-08-05T06:18:06.402Z,11.63
2022-08-05T06:20:34.305Z,11.85
2022-08-05T06:23:04.174Z,12.57
2022-08-05T06:26:12.259Z,11.25
2022-08-05T06:28:21.660Z,10.88
2022-08-05T06:30:51.584Z,10.68
2022-08-05T06:36:07.984Z,11.52
2022-08-05T06:38:36.753Z,10.82
2022-08-05T06:41:07.848Z,10.68
2022-08-05T06:43:58.622Z,10.20
2022-08-05T06:46:30.382Z,10.77
2022-08-05T06:49:01.224Z,10.35
2022-08-05T06:53:57.181Z,10.43
2022-08-05T06:56:26.586Z,10.18
2022-08-05T06:58:55.103Z,9.85
2022-08-05T07:01:23.841Z,10.38
2022-08-05T07:04:02.484Z,10.48
2022-08-05T07:06:31.839Z,9.93
2022-08-05T07:09:04.351Z,10.20
2022-08-05T07:11:37.114Z,10.00
2022-08-05T07:14:28.894Z,10.27
2022-08-05T07:17:59.724Z,9.50
2022-08-05T07:22:29.011Z,9.82
2022-08-05T07:25:23.147Z,9.77
2022-08-05T07:27:57.992Z,9.45
2022-08-05T07:30:43.246Z,10.25
2022-08-05T07:36:03.318Z,9.93
2022-08-05T07:38:43.482Z,9.88
2022-08-05T07:42:13.396Z,10.20
2022-08-05T07:44:14.359Z,11.17
2022-08-05T07:46:50.111Z,10.75
2022-08-05T07:49:19.955Z,10.27
2022-08-05T07:51:54.217Z,10.23
2022-08-05T07:54:31.579Z,10.70
2022-08-05T07:57:16.926Z,9.55
2022-08-05T07:59:50.936Z,9.68
2022-08-05T08:02:26.827Z,9.88
2022-08-05T08:04:59.852Z,9.95
2022-08-05T08:07:39.726Z,9.80
2022-08-05T08:10:23.361Z,9.93
2022-08-05T08:12:58.576Z,10.60
2022-08-05T08:15:37.279Z,10.18
2022-08-05T08:18:20.819Z,10.15
2022-08-05T08:21:01.885Z,10.32
2022-08-05T08:24:01.106Z,9.93
2022-08-05T08:26:26.795Z,9.88
2022-08-05T08:29:21.837Z,9.80
2022-08-05T08:31:48.863Z,9.38
2022-08-05T08:34:18.649Z,9.70
2022-08-05T08:36:55.704Z,9.57
2022-08-05T08:39:26.312Z,9.55
2022-08-05T08:45:23.704Z,9.68
2022-08-05T08:48:06.111Z,9.25
2022-08-05T08:50:31.634Z,9.23
2022-08-05T08:53:08.108Z,8.52
2022-08-05T08:56:04.543Z,8.40
2022-08-05T08:58:44.414Z,8.95
2022-08-05T09:01:21.357Z,8.88
2022-08-05T09:03:55.537Z,8.95
2022-08-05T09:06:29.912Z,8.95
2022-08-05T09:09:01.495Z,9.13
2022-08-05T09:11:52.400Z,8.98
2022-08-05T09:14:57.193Z,8.95
2022-08-05T09:17:39.900Z,9.45
2022-08-05T09:26:03.017Z,9.27
2022-08-05T09:28:31.906Z,8.23
2022-08-05T09:31:18.178Z,8.85
2022-08-05T09:33:53.390Z,9.07
2022-08-05T09:36:27.633Z,9.32
2022-08-05T09:39:07.841Z,8.77
2022-08-05T09:42:04.259Z,9.05
2022-08-05T09:44:42.559Z,8.93
2022-08-05T09:47:15.810Z,9.50
2022-08-05T09:50:01.425Z,9.23
2022-08-05T09:52:34.097Z,9.10
2022-08-05T09:55:55.572Z,8.60
2022-08-05T09:57:58.567Z,8.82
2022-08-05T10:00:29.581Z,8.55
2022-08-05T10:03:08.809Z,8.20
2022-08-05T10:08:35.879Z,8.55
2022-08-05T10:10:57.890Z,8.45
2022-08-05T10:13:43.840Z,9.60
2022-08-05T10:16:32.155Z,8.82
2022-08-05T10:19:09.220Z,8.75
2022-08-05T10:21:39.923Z,8.63
2022-08-05T10:24:11.115Z,8.82
2022-08-05T10:26:51.593Z,8.75
2022-08-05T10:30:06.452Z,8.60
2022-08-05T10:32:56.258Z,8.52
2022-08-05T10:35:01.434Z,8.35
2022-08-05T10:37:40.448Z,8.70
2022-08-05T10:40:28.277Z,8.70
2022-08-05T10:48:39.577Z,7.90
2022-08-05T10:51:28.311Z,8.20
2022-08-05T10:53:58.382Z,8.80
2022-08-05T10:56:30.693Z,9.20
2022-08-05T10:59:12.255Z,8.95
2022-08-05T11:02:04.646Z,9.65
2022-08-05T11:04:44.302Z,8.77
2022-08-05T11:07:33.010Z,8.70
2022-08-05T11:10:23.129Z,8.95
2022-08-05T11:12:56.263Z,9.20
2022-08-05T11:16:00.874Z,8.77
2022-08-05T11:20:57.566Z,9.68
2022-08-05T11:24:02.622Z,9.43
2022-08-05T11:26:32.077Z,9.23
2022-08-05T11:29:11.532Z,9.30
2022-08-05T11:31:57.742Z,8.88
2022-08-05T11:34:54.328Z,9.18
2022-08-05T11:41:13.874Z,9.52
2022-08-05T11:44:07.606Z,9.30
2022-08-05T11:47:09.597Z,9.65
2022-08-05T11:49:26.321Z,9.63
2022-08-05T11:54:33.831Z,9.38
2022-08-05T11:57:08.270Z,9.00
2022-08-05T11:59:52.536Z,9.43
2022-08-05T12:02:30.740Z,9.57
2022-08-05T12:05:01.097Z,9.60
2022-08-05T12:08:08.073Z,9.80
2022-08-05T12:10:42.883Z,9.85
2022-08-05T12:13:17.281Z,9.43
2022-08-05T12:15:56.221Z,9.45
2022-08-05T12:18:32.812Z,9.68
2022-08-05T12:21:11.743Z,9.50
2022-08-05T12:23:53.125Z,9.48
2022-08-05T12:26:24.040Z,9.63
2022-08-05T12:28:53.060Z,10.43
2022-08-05T12:31:23.732Z,10.30
2022-08-05T12:34:03.145Z,9.52
2022-08-05T12:36:35.604Z,9.73
2022-08-05T12:39:07.036Z,10.05
2022-08-05T12:41:43.554Z,10.00
2022-08-05T12:44:14.266Z,10.10
2022-08-05T12:46:45.639Z,10.30
2022-08-05T12:49:15.273Z,9.80
2022-08-05T12:52:12.687Z,10.30
2022-08-05T12:54:51.382Z,10.02
2022-08-05T12:57:20.079Z,10.18
2022-08-05T13:01:57.319Z,10.40
2022-08-05T13:02:41.093Z,10.07
2022-08-05T13:05:11.170Z,10.27
2022-08-05T13:08:01.125Z,10.40
2022-08-05T13:10:35.011Z,10.15
2022-08-05T13:14:06.378Z,10.15
2022-08-05T13:16:17.922Z,10.40
2022-08-05T13:18:52.191Z,10.65
2022-08-05T13:21:28.474Z,9.82
2022-08-05T13:24:09.095Z,10.00
2022-08-05T13:26:37.434Z,9.90
2022-08-05T13:29:07.871Z,9.63
2022-08-05T13:32:04.145Z,9.88
2022-08-05T13:34:26.225Z,9.55
2022-08-05T13:36:54.799Z,9.80
2022-08-05T13:39:24.498Z,10.30
2022-08-05T13:42:14.746Z,10.15
2022-08-05T13:44:45.691Z,10.38
2022-08-05T13:47:35.817Z,10.00
2022-08-05T13:50:13.529Z,10.23
2022-08-05T13:52:45.460Z,10.38
2022-08-05T13:55:40.746Z,10.10
2022-08-05T13:58:11.902Z,10.15
2022-08-05T14:03:12.011Z,9.82
2022-08-05T14:06:04.830Z,9.88
2022-08-05T14:08:32.619Z,9.63
2022-08-05T14:11:19.746Z,10.30
2022-08-05T14:13:49.381Z,9.75
2022-08-05T14:16:25.016Z,9.75
2022-08-05T14:18:53.137Z,10.25
2022-08-05T14:22:08.591Z,9.40
2022-08-05T14:24:11.853Z,9.93
2022-08-05T14:27:02.107Z,10.07
2022-08-05T14:29:34.732Z,9.60
2022-08-05T14:32:13.778Z,9.77
2022-08-05T14:34:45.188Z,9.90
2022-08-05T14:37:14.123Z,9.68
2022-08-05T14:39:50.115Z,9.95
2022-08-05T14:42:26.991Z,9.70
2022-08-05T14:44:56.619Z,9.63
2022-08-05T14:48:03.645Z,9.50
2022-08-05T14:50:19.032Z,9.85
2022-08-05T14:52:53.485Z,9.30
2022-08-05T14:55:28.755Z,9.32
2022-08-05T14:58:11.966Z,9.57
2022-08-05T15:00:58.213Z,9.10
2022-08-05T15:03:33.930Z,9.65
2022-08-05T15:06:14.781Z,9.23
2022-08-05T15:09:01.210Z,9.77
2022-08-05T15:11:52.831Z,9.90
2022-08-05T15:14:35.937Z,9.70
2022-08-05T15:17:44.748Z,9.88
2022-08-05T15:20:03.996Z,9.90
2022-08-05T15:22:32.107Z,10.13
2022-08-05T15:25:13.817Z,10.00
2022-08-05T15:27:52.033Z,10.52
2022-08-05T15:30:20.507Z,10.45
2022-08-05T15:32:51.128Z,10.02
2022-08-05T15:35:21.986Z,10.40
2022-08-05T15:38:33.218Z,10.35
2022-08-05T15:40:58.612Z,10.70
2022-08-05T15:43:46.029Z,10.45
2022-08-05T15:46:15.476Z,10.82
2022-08-05T15:48:52.658Z,10.65
2022-08-05T15:52:12.428Z,10.23
2022-08-05T15:54:34.496Z,10.90
2022-08-05T15:57:03.763Z,10.88
2022-08-05T15:59:36.459Z,10.82
2022-08-05T16:02:14.682Z,11.13
2022-08-05T16:04:44.006Z,10.48
2022-08-05T16:07:19.466Z,10.73
2022-08-05T16:09:51.122Z,10.45
2022-08-05T16:12:23.280Z,10.80
2022-08-05T16:14:51.615Z,10.45
2022-08-05T16:17:20.328Z,10.35
2022-08-05T16:20:03.070Z,10.60
2022-08-05T16:22:35.676Z,10.50
2022-08-05T16:25:09.826Z,10.93
2022-08-05T16:27:59.988Z,10.25
2022-08-05T16:30:28.864Z,9.82
2022-08-05T16:32:58.141Z,10.23
2022-08-05T16:35:28.464Z,10.20
2022-08-05T16:38:21.879Z,10.25
2022-08-05T16:40:55.760Z,10.95
2022-08-05T16:43:31.817Z,10.85
2022-08-05T16:46:05.010Z,9.93
2022-08-05T16:48:38.892Z,10.70
2022-08-05T16:51:12.063Z,10.55
2022-08-05T16:54:04.706Z,10.40
2022-08-05T16:56:34.184Z,10.40
2022-08-05T16:59:07.523Z,10.20
2022-08-05T17:01:53.996Z,10.10
2022-08-05T17:04:26.044Z,10.73
2022-08-05T17:06:55.955Z,10.90
2022-08-05T17:12:00.501Z,11.07
2022-08-05T17:14:37.177Z,11.27
2022-08-05T17:17:14.151Z,11.48
2022-08-05T17:19:45.521Z,11.20
2022-08-05T17:22:17.728Z,11.13
2022-08-05T17:25:00.183Z,10.48
2022-08-05T17:27:33.376Z,10.80
2022-08-05T17:30:03.149Z,10.85
2022-08-05T17:32:33.773Z,10.95
2022-08-05T17:35:04.471Z,10.98
2022-08-05T17:37:40.298Z,11.73
2022-08-05T17:40:15.998Z,11.75
2022-08-05T17:42:51.311Z,10.80
2022-08-05T17:45:22.288Z,10.50
2022-08-05T17:50:28.952Z,11.20
2022-08-05T17:53:01.867Z,10.70
2022-08-05T17:55:37.147Z,10.57
2022-08-05T17:58:16.390Z,10.20
2022-08-05T18:00:50.708Z,11.10
2022-08-05T18:06:11.313Z,11.13
2022-08-05T18:08:44.447Z,11.65
2022-08-05T18:13:52.038Z,11.30
2022-08-05T18:16:21.070Z,11.30
2022-08-05T18:21:26.307Z,10.90
2022-08-05T18:24:00.122Z,11.10
2022-08-05T18:29:05.095Z,10.40
2022-08-05T18:31:43.121Z,10.70
2022-08-05T18:34:12.290Z,11.15
2022-08-05T18:36:43.535Z,11.30
2022-08-05T18:39:41.863Z,9.82
2022-08-05T18:42:11.505Z,10.27
2022-08-05T18:44:51.741Z,11.00
2022-08-05T18:47:28.113Z,10.45
2022-08-05T18:50:20.978Z,10.68
2022-08-05T18:53:20.592Z,10.70
2022-08-05T18:55:55.203Z,10.68
2022-08-05T18:58:30.154Z,10.90
2022-08-05T19:01:17.807Z,11.02
2022-08-05T19:03:53.318Z,12.13
2022-08-05T19:06:34.396Z,11.30
2022-08-05T19:09:16.942Z,10.88
2022-08-05T19:12:00.568Z,11.10
2022-08-05T19:14:59.313Z,11.50
2022-08-05T19:17:33.729Z,11.40
2022-08-05T19:20:16.821Z,11.57
2022-08-05T19:22:49.262Z,11.15
2022-08-05T19:25:29.553Z,11.57
2022-08-05T19:28:00.479Z,11.13
2022-08-05T19:30:31.331Z,11.88
2022-08-05T19:33:04.659Z,11.45
2022-08-05T19:35:56.524Z,11.38
2022-08-05T19:38:26.621Z,12.50
2022-08-05T19:40:56.456Z,11.93
2022-08-05T19:46:00.442Z,12.68
2022-08-05T19:48:32.893Z,12.40
2022-08-05T19:56:13.587Z,12.07
2022-08-05T19:59:51.150Z,12.32
2022-08-05T20:01:51.983Z,12.55
2022-08-05T20:04:22.369Z,13.10
2022-08-05T20:06:56.420Z,13.18
2022-08-05T20:09:53.662Z,12.75
2022-08-05T20:12:21.182Z,13.10
2022-08-05T20:14:53.413Z,12.90
2022-08-05T20:17:24.029Z,13.20
2022-08-05T20:19:57.650Z,12.38
2022-08-05T20:22:27.180Z,13.32
2022-08-05T20:25:01.783Z,13.20
2022-08-05T20:30:11.354Z,13.13
2022-08-05T20:32:45.604Z,12.75
2022-08-05T20:35:22.563Z,13.63
2022-08-05T20:38:05.758Z,12.90
2022-08-05T20:40:43.156Z,14.25
2022-08-05T20:43:12.747Z,12.63
2022-08-05T20:48:13.003Z,13.43
2022-08-05T20:50:47.077Z,13.57
2022-08-05T20:53:36.507Z,13.73
2022-08-05T20:56:09.470Z,13.52
2022-08-05T20:58:44.267Z,14.25
2022-08-05T21:01:37.153Z,14.20
2022-08-05T21:04:10.669Z,14.60
2022-08-05T21:09:11.569Z,15.73
2022-08-05T21:12:07.367Z,17.70
2022-08-05T21:14:38.341Z,16.20
2022-08-05T21:17:12.684Z,14.75
2022-08-05T21:19:47.907Z,14.20
2022-08-05T21:22:26.020Z,13.68
2022-08-05T21:25:03.364Z,14.20
2022-08-05T21:30:24.454Z,13.80
2022-08-05T21:33:07.144Z,14.30
2022-08-05T21:35:55.930Z,13.73
2022-08-05T21:38:32.195Z,13.40
2022-08-05T21:41:04.172Z,14.38
2022-08-05T21:43:41.715Z,16.80
2022-08-05T21:46:17.442Z,15.77
2022-08-05T21:48:56.716Z,15.90
2022-08-05T21:52:22.648Z,15.43
2022-08-05T21:54:14.238Z,14.02
2022-08-05T21:56:51.436Z,14.30
2022-08-05T21:59:25.049Z,13.25
2022-08-05T22:04:33.405Z,13.75
2022-08-05T22:07:02.414Z,13.88
2022-08-05T22:09:45.785Z,14.63
2022-08-05T22:12:15.425Z,13.73
2022-08-05T22:20:03.386Z,13.73
2022-08-05T22:23:03.561Z,13.35
2022-08-05T22:26:09.632Z,13.40
2022-08-05T22:28:41.335Z,13.57
2022-08-05T22:31:09.309Z,13.73
2022-08-05T22:33:55.397Z,14.10
2022-08-05T22:36:27.817Z,14.10
2022-08-05T22:39:04.205Z,13.68
2022-08-05T22:42:09.810Z,15.02
2022-08-05T22:44:31.269Z,14.15
2022-08-05T22:47:00.561Z,14.63
2022-08-05T22:50:18.361Z,15.20
2022-08-05T22:52:32.142Z,16.33
2022-08-05T22:55:18.599Z,14.82
2022-08-05T22:57:52.488Z,14.50
2022-08-05T23:00:22.455Z,14.43
2022-08-05T23:02:52.850Z,15.85
2022-08-05T23:07:53.828Z,15.35
2022-08-05T23:10:26.038Z,15.18
2022-08-05T23:15:29.912Z,15.10
2022-08-05T23:18:15.849Z,16.10
2022-08-05T23:20:52.869Z,15.65
2022-08-05T23:23:21.413Z,15.93
2022-08-05T23:25:55.508Z,14.48
2022-08-05T23:28:28.783Z,16.00
2022-08-05T23:34:04.197Z,15.95
2022-08-05T23:36:44.620Z,15.65
2022-08-05T23:39:17.660Z,15.70
2022-08-05T23:42:04.834Z,16.63
2022-08-05T23:44:42.609Z,15.88
2022-08-05T23:47:15.750Z,15.57
2022-08-05T23:49:56.695Z,16.20
2022-08-05T23:52:27.564Z,16.45
2022-08-05T23:54:58.560Z,15.75
2022-08-05T23:57:29.224Z,15.80
